Time;durP1;ratioP1;P1;durP2;ratioP2;P2;SDS_P1;SDS_P2;PMS_P1;PMS_P2;Temp;Humidity;BMP_temperature;BMP_pressure;BME280_temperature;BME280_humidity;BME280_pressure;Samples;Min_cycle;Max_cycle;Signal;HPM_P1;HPM_P2
2022/07/21 00:01:52;;;;;;;8.70;2.50;;;;;;;17.14;54.92;100458.34;1689470;82;21240;-61
2022/07/21 00:04:20;;;;;;;6.12;2.62;;;;;;;17.13;54.98;100458.00;1695561;82;21093;-61
2022/07/21 00:06:47;;;;;;;4.67;2.30;;;;;;;17.14;54.91;100457.02;1695512;82;21136;-60
2022/07/21 00:09:15;;;;;;;7.78;2.50;;;;;;;17.12;54.91;100457.69;1683349;83;21046;-59
2022/07/21 00:11:43;;;;;;;6.65;2.02;;;;;;;17.07;54.84;100457.66;1675120;84;21001;-60
2022/07/21 00:14:11;;;;;;;11.83;2.00;;;;;;;17.01;55.19;100452.17;1683507;83;21072;-59
2022/07/21 00:16:39;;;;;;;6.62;2.08;;;;;;;16.96;55.19;100451.83;1668098;84;21597;-60
2022/07/21 00:19:08;;;;;;;14.63;1.98;;;;;;;16.90;55.34;100454.65;1661864;84;21155;-60
2022/07/21 00:21:35;;;;;;;4.53;1.67;;;;;;;16.84;55.20;100451.27;1690085;83;21176;-59
2022/07/21 00:24:02;;;;;;;7.25;2.40;;;;;;;16.79;55.09;100442.45;1699355;81;21972;-59
2022/07/21 00:26:29;;;;;;;7.70;1.90;;;;;;;16.76;55.08;100449.44;1670505;84;21111;-59
2022/07/21 00:28:55;;;;;;;4.35;1.60;;;;;;;16.70;55.09;100446.09;1695610;82;21081;-59
2022/07/21 00:31:23;;;;;;;3.87;1.57;;;;;;;16.65;55.30;100447.89;1693621;83;21046;-59
2022/07/21 00:33:51;;;;;;;5.33;1.60;;;;;;;16.63;55.52;100454.37;1694541;83;21168;-59
2022/07/21 00:36:19;;;;;;;10.20;1.62;;;;;;;16.59;55.62;100447.20;1690699;82;22353;-59
2022/07/21 00:38:45;;;;;;;4.53;1.60;;;;;;;16.58;55.83;100448.72;1691222;82;22490;-59
2022/07/21 00:41:12;;;;;;;4.35;1.40;;;;;;;16.53;56.01;100455.32;1692036;83;21497;-59
2022/07/21 00:43:38;;;;;;;4.12;1.50;;;;;;;16.51;56.08;100458.64;1687599;83;21498;-60
2022/07/21 00:46:06;;;;;;;5.12;1.80;;;;;;;16.48;55.99;100459.45;1690919;82;21082;-60
2022/07/21 00:48:33;;;;;;;6.00;1.67;;;;;;;16.43;55.86;100456.45;1690968;82;21112;-59
2022/07/21 00:50:59;;;;;;;4.83;1.75;;;;;;;16.37;55.84;100451.26;1632333;86;21074;-59
2022/07/21 00:53:26;;;;;;;4.80;1.30;;;;;;;16.30;55.99;100447.08;1671036;84;21161;-59
2022/07/21 00:55:53;;;;;;;6.72;1.80;;;;;;;16.26;56.04;100448.91;1697459;82;21650;-59
2022/07/21 00:58:21;;;;;;;4.85;1.90;;;;;;;16.23;56.12;100451.88;1693135;82;21019;-59
2022/07/21 01:00:47;;;;;;;4.97;1.30;;;;;;;16.19;56.15;100446.05;1688164;82;21153;-59
2022/07/21 01:03:14;;;;;;;5.75;1.45;;;;;;;16.15;56.25;100449.99;1679112;83;21741;-59
2022/07/21 01:05:40;;;;;;;4.62;1.40;;;;;;;16.11;56.32;100450.80;1682680;82;21119;-59
2022/07/21 01:08:07;;;;;;;4.42;1.30;;;;;;;16.08;56.41;100451.62;1686491;82;21039;-59
2022/07/21 01:10:33;;;;;;;4.53;1.80;;;;;;;16.02;56.62;100454.89;1695978;82;21568;-59
2022/07/21 01:13:01;;;;;;;4.87;2.10;;;;;;;15.96;56.66;100457.69;1673122;84;21351;-60
2022/07/21 01:15:28;;;;;;;7.28;2.00;;;;;;;15.92;56.81;100458.50;1669716;84;21110;-59
2022/07/21 01:17:55;;;;;;;5.37;2.02;;;;;;;15.87;56.91;100453.30;1691941;82;21122;-59
2022/07/21 01:20:23;;;;;;;5.50;2.02;;;;;;;15.82;57.01;100459.09;1684541;82;21194;-59
2022/07/21 01:22:53;;;;;;;8.85;1.80;;;;;;;15.75;57.21;100457.99;1691293;83;21122;-59
2022/07/21 01:25:20;;;;;;;5.50;1.77;;;;;;;15.72;57.44;100453.02;1688133;82;21144;-59
2022/07/21 01:27:47;;;;;;;5.83;2.10;;;;;;;15.69;57.59;100457.30;1702313;82;21092;-59
2022/07/21 01:30:13;;;;;;;5.45;2.00;;;;;;;15.66;57.96;100456.28;1703667;82;21070;-59
2022/07/21 01:32:41;;;;;;;5.35;2.05;;;;;;;15.60;58.23;100456.38;1693278;82;21089;-59
2022/07/21 01:35:11;;;;;;;5.17;2.12;;;;;;;15.55;58.42;100452.89;1697827;82;21152;-59
2022/07/21 01:37:42;;;;;;;6.05;2.10;;;;;;;15.54;58.53;100455.69;1709203;82;21250;-59
2022/07/21 01:42:41;;;;;;;5.10;1.60;;;;;;;15.61;58.41;100453.58;1664112;81;21082;-59
2022/07/21 01:45:09;;;;;;;4.78;1.98;;;;;;;15.67;58.27;100449.97;1697452;82;21082;-59
2022/07/21 01:47:36;;;;;;;6.03;2.05;;;;;;;15.70;58.16;100446.55;1699323;82;21023;-59
2022/07/21 01:50:04;;;;;;;5.08;2.20;;;;;;;15.75;57.95;100436.77;1705940;82;21179;-59
2022/07/21 01:52:30;;;;;;;4.70;1.77;;;;;;;15.74;57.91;100439.92;1718489;82;21081;-59
2022/07/21 01:54:57;;;;;;;7.58;2.22;;;;;;;15.70;57.88;100439.91;1675272;84;21129;-59
2022/07/21 01:57:23;;;;;;;4.65;1.85;;;;;;;15.67;57.90;100444.19;1678211;84;21393;-60
2022/07/21 01:59:50;;;;;;;4.72;1.70;;;;;;;15.62;57.87;100443.83;1665263;84;21146;-59
2022/07/21 02:02:20;;;;;;;8.08;2.27;;;;;;;15.58;57.83;100451.73;1676662;84;21169;-59
2022/07/21 02:04:45;;;;;;;5.30;2.05;;;;;;;15.51;57.95;100447.53;1696767;82;21098;-59
2022/07/21 02:07:11;;;;;;;7.80;2.40;;;;;;;15.46;58.12;100443.69;1685171;83;21141;-58
2022/07/21 02:09:38;;;;;;;5.90;1.82;;;;;;;15.42;58.42;100442.66;1710358;82;21074;-58
2022/07/21 02:12:06;;;;;;;4.75;2.00;;;;;;;15.39;58.62;100436.84;1699329;82;21141;-59
2022/07/21 02:14:32;;;;;;;4.37;2.02;;;;;;;15.35;58.73;100432.84;1698361;81;21782;-59
2022/07/21 02:17:00;;;;;;;4.80;1.80;;;;;;;15.32;58.75;100446.39;1710810;81;21441;-59
2022/07/21 02:19:26;;;;;;;5.97;2.27;;;;;;;15.26;58.81;100441.19;1705868;82;21477;-58
2022/07/21 02:21:53;;;;;;;6.10;2.08;;;;;;;15.24;58.75;100443.98;1709570;82;21459;-59
2022/07/21 02:24:20;;;;;;;5.03;1.98;;;;;;;15.20;58.87;100447.12;1706668;82;21134;-58
2022/07/21 02:26:46;;;;;;;5.05;1.90;;;;;;;15.18;58.88;100445.09;1709852;82;21058;-58
2022/07/21 02:29:13;;;;;;;6.78;2.33;;;;;;;15.14;58.98;100438.44;1703987;82;21188;-58
2022/07/21 02:31:39;;;;;;;9.30;2.25;;;;;;;15.10;59.06;100441.06;1699032;82;21204;-58
2022/07/21 02:34:07;;;;;;;3.92;1.55;;;;;;;15.12;59.13;100440.41;1700033;82;21039;-59
2022/07/21 02:36:34;;;;;;;4.83;1.77;;;;;;;15.19;59.07;100442.79;1700482;82;21137;-59
2022/07/21 02:39:01;;;;;;;4.78;1.98;;;;;;;15.24;59.01;100441.34;1706204;82;21136;-58
2022/07/21 02:41:27;;;;;;;5.90;1.80;;;;;;;15.27;58.94;100444.19;1699282;83;21094;-58
2022/07/21 02:43:54;;;;;;;4.00;1.47;;;;;;;15.31;58.88;100444.22;1692343;82;21170;-58
2022/07/21 02:46:20;;;;;;;4.60;1.70;;;;;;;15.33;58.70;100439.62;1712579;82;21105;-58
2022/07/21 02:48:47;;;;;;;4.47;1.70;;;;;;;15.33;58.58;100436.97;1712469;82;21081;-58
2022/07/21 02:51:14;;;;;;;6.22;1.77;;;;;;;15.31;58.72;100436.27;1692684;82;21165;-58
2022/07/21 02:53:40;;;;;;;6.70;2.00;;;;;;;15.29;58.64;100432.11;1684785;83;21116;-58
2022/07/21 02:56:07;;;;;;;3.77;1.70;;;;;;;15.29;58.71;100430.28;1691626;82;21194;-58
2022/07/21 02:58:34;;;;;;;3.52;1.52;;;;;;;15.29;58.66;100433.44;1690084;83;21118;-59
2022/07/21 03:01:03;;;;;;;4.92;1.60;;;;;;;15.27;58.76;100426.14;1697234;82;21136;-59
2022/07/21 03:03:34;;;;;;;7.05;2.05;;;;;;;15.26;58.94;100431.91;1688792;82;21133;-59
2022/07/21 03:06:00;;;;;;;6.15;1.92;;;;;;;15.27;59.02;100428.28;1694204;82;21064;-59
2022/07/21 03:08:28;;;;;;;6.78;2.47;;;;;;;15.26;59.10;100426.61;1697899;82;21038;-59
2022/07/21 03:10:55;;;;;;;6.95;1.90;;;;;;;15.28;59.13;100427.78;1695337;83;21149;-59
2022/07/21 03:13:22;;;;;;;5.35;2.20;;;;;;;15.28;59.02;100427.78;1712402;82;21128;-59
2022/07/21 03:15:49;;;;;;;6.72;1.50;;;;;;;15.28;59.12;100425.13;1701207;82;21239;-59
2022/07/21 03:18:17;;;;;;;4.30;1.85;;;;;;;15.34;58.96;100416.08;1706572;82;21081;-59
2022/07/21 03:20:44;;;;;;;4.20;1.80;;;;;;;15.45;58.87;100420.80;1685525;83;21130;-60
2022/07/21 03:23:12;;;;;;;4.95;2.00;;;;;;;15.52;58.65;100423.20;1693474;83;21117;-60
2022/07/21 03:25:39;;;;;;;5.83;2.02;;;;;;;15.53;58.67;100424.38;1706732;82;21113;-60
2022/07/21 03:28:06;;;;;;;4.53;1.60;;;;;;;15.56;58.69;100424.54;1698090;83;21099;-60
2022/07/21 03:30:35;;;;;;;5.78;1.80;;;;;;;15.58;58.57;100420.76;1692072;82;21172;-59
2022/07/21 03:33:01;;;;;;;4.40;1.80;;;;;;;15.63;58.33;100420.78;1708773;83;21070;-60
2022/07/21 03:35:28;;;;;;;5.05;1.95;;;;;;;15.63;58.26;100428.73;1697105;82;21507;-59
2022/07/21 03:37:57;;;;;;;7.92;2.15;;;;;;;15.63;58.24;100424.75;1694328;82;21120;-59
2022/07/21 03:40:26;;;;;;;5.65;2.05;;;;;;;15.60;58.21;100423.23;1694562;82;22075;-60
2022/07/21 03:42:54;;;;;;;7.85;2.05;;;;;;;15.58;58.43;100419.91;1699523;83;21074;-60
2022/07/21 03:45:20;;;;;;;5.35;2.08;;;;;;;15.58;58.40;100422.56;1706111;82;21091;-60
2022/07/21 03:47:47;;;;;;;6.50;2.05;;;;;;;15.59;58.58;100421.58;1716546;82;21095;-60
2022/07/21 03:50:17;;;;;;;5.00;1.75;;;;;;;15.60;58.38;100413.95;1706674;82;21600;-60
2022/07/21 03:52:45;;;;;;;5.83;2.15;;;;;;;15.64;58.43;100415.32;1691222;82;21204;-60
2022/07/21 03:55:14;;;;;;;5.70;2.33;;;;;;;15.69;58.61;100414.36;1708597;82;21186;-60
2022/07/21 03:57:47;;;;;;;6.17;1.72;;;;;;;15.77;58.32;100418.43;1701315;82;21121;-59
2022/07/21 04:00:25;;;;;;;5.12;1.62;;;;;;;15.86;58.27;100429.09;1691834;82;21154;-60
2022/07/21 04:02:52;;;;;;;5.03;2.05;;;;;;;15.90;57.98;100419.82;1706959;82;21504;-60
2022/07/21 04:05:19;;;;;;;5.85;1.67;;;;;;;15.97;58.26;100412.41;1701091;82;21145;-59
2022/07/21 04:07:48;;;;;;;5.67;1.57;;;;;;;16.08;58.09;100404.66;1692753;82;21114;-60
2022/07/21 04:10:17;;;;;;;4.97;2.22;;;;;;;16.20;58.19;100405.72;1700939;82;21074;-60
2022/07/21 04:12:44;;;;;;;5.75;2.45;;;;;;;16.31;57.85;100406.27;1696473;82;21628;-60
2022/07/21 04:15:10;;;;;;;7.12;2.15;;;;;;;16.34;57.42;100401.97;1706673;82;21035;-60
2022/07/21 04:17:38;;;;;;;7.12;2.10;;;;;;;16.39;57.34;100395.34;1711700;82;21142;-59
2022/07/21 04:20:06;;;;;;;5.15;1.67;;;;;;;16.41;57.23;100385.38;1707277;82;21024;-59
2022/07/21 04:22:33;;;;;;;4.28;1.55;;;;;;;16.46;57.05;100393.22;1702954;82;21076;-60
2022/07/21 04:25:02;;;;;;;5.75;1.70;;;;;;;16.53;56.88;100394.73;1704476;82;21080;-59
2022/07/21 04:27:29;;;;;;;5.50;1.90;;;;;;;16.57;56.95;100391.25;1706008;82;21069;-60
2022/07/21 04:29:55;;;;;;;5.72;1.67;;;;;;;16.61;56.78;100396.56;1714535;82;21188;-60
2022/07/21 04:32:22;;;;;;;8.30;1.62;;;;;;;16.68;56.51;100390.96;1691988;82;21076;-60
2022/07/21 04:34:48;;;;;;;5.03;1.85;;;;;;;16.76;56.75;100399.43;1672670;84;21087;-60
2022/07/21 04:37:15;;;;;;;6.95;1.87;;;;;;;16.80;56.54;100403.44;1703859;82;21117;-59
2022/07/21 04:39:42;;;;;;;5.33;1.82;;;;;;;16.86;56.36;100406.78;1712055;82;21452;-60
2022/07/21 04:42:08;;;;;;;5.50;1.60;;;;;;;16.90;56.26;100406.30;1710613;82;21693;-61
2022/07/21 04:44:35;;;;;;;5.08;1.67;;;;;;;16.94;56.45;100409.97;1703509;82;21505;-60
2022/07/21 04:47:01;;;;;;;3.87;1.65;;;;;;;16.98;56.19;100413.95;1703613;82;21565;-60
2022/07/21 04:49:29;;;;;;;4.00;1.72;;;;;;;17.02;56.42;100403.34;1702841;82;22342;-59
2022/07/21 04:51:55;;;;;;;5.60;1.90;;;;;;;17.10;56.52;100413.98;1688839;83;21069;-60
2022/07/21 04:54:21;;;;;;;5.10;1.67;;;;;;;17.16;56.24;100423.94;1694878;82;21188;-59
2022/07/21 04:56:48;;;;;;;6.10;1.87;;;;;;;17.23;56.08;100412.14;1699993;83;21129;-60
2022/07/21 04:59:15;;;;;;;5.30;2.17;;;;;;;17.30;55.69;100418.48;1698590;82;21061;-60
2022/07/21 05:01:41;;;;;;;4.25;1.70;;;;;;;17.37;55.72;100416.00;1679479;84;21118;-59
2022/07/21 05:04:07;;;;;;;4.50;1.70;;;;;;;17.45;55.22;100417.33;1676661;83;21086;-60
2022/07/21 05:06:34;;;;;;;13.62;3.70;;;;;;;17.52;55.23;100417.48;1685309;83;21122;-60
2022/07/21 05:09:01;;;;;;;4.87;1.85;;;;;;;17.58;54.82;100412.30;1699196;83;21117;-60
2022/07/21 05:11:28;;;;;;;4.85;1.80;;;;;;;17.65;54.82;100412.45;1691703;83;21198;-59
2022/07/21 05:13:54;;;;;;;16.02;2.47;;;;;;;17.72;54.27;100414.80;1686588;83;21144;-60
2022/07/21 05:16:22;;;;;;;9.60;2.10;;;;;;;17.81;54.24;100414.28;1695285;83;21121;-61
2022/07/21 05:18:49;;;;;;;6.78;1.87;;;;;;;17.88;54.27;100405.97;1682825;83;21248;-60
2022/07/21 05:21:15;;;;;;;4.58;1.50;;;;;;;17.95;54.25;100406.95;1697962;82;21080;-60
2022/07/21 05:23:42;;;;;;;5.58;1.32;;;;;;;18.06;53.41;100408.94;1679256;83;21095;-60
2022/07/21 05:49:56;;;;;;;4.00;1.22;;;;;;;19.84;48.61;100385.77;1730824;78;22071;-58
2022/07/21 05:52:23;;;;;;;4.30;1.50;;;;;;;19.82;48.38;100383.80;1699591;82;21110;-59
2022/07/21 05:54:49;;;;;;;4.85;1.30;;;;;;;19.83;48.73;100385.95;1703089;81;21146;-59
2022/07/21 05:57:18;;;;;;;3.17;1.20;;;;;;;19.83;48.24;100388.10;1716092;81;21569;-59
2022/07/21 05:59:46;;;;;;;5.53;1.47;;;;;;;19.85;48.53;100390.11;1706541;82;21572;-59
2022/07/21 06:02:12;;;;;;;3.42;0.98;;;;;;;19.85;48.97;100392.78;1706061;81;21100;-61
2022/07/21 06:04:39;;;;;;;4.50;1.30;;;;;;;19.88;48.63;100381.40;1706665;82;21148;-58
2022/07/21 06:07:07;;;;;;;6.67;1.50;;;;;;;19.89;48.68;100378.55;1692429;82;21140;-59
2022/07/21 06:09:33;;;;;;;4.58;1.20;;;;;;;19.94;48.02;100377.97;1707252;81;21070;-58
2022/07/21 06:12:02;;;;;;;4.03;1.20;;;;;;;19.98;47.36;100389.95;1696023;81;21133;-58
2022/07/21 06:14:29;;;;;;;6.78;1.12;;;;;;;20.00;48.29;100372.72;1683038;83;21153;-58
2022/07/21 06:16:57;;;;;;;5.15;0.90;;;;;;;20.06;47.62;100373.84;1704001;82;21105;-58
2022/07/21 06:19:23;;;;;;;3.98;1.40;;;;;;;20.14;47.60;100379.58;1699689;82;21121;-58
2022/07/21 06:21:51;;;;;;;3.77;1.00;;;;;;;20.21;47.25;100370.65;1712056;81;21066;-58
2022/07/21 06:24:21;;;;;;;11.63;1.40;;;;;;;20.27;46.80;100373.59;1710909;81;21580;-59
2022/07/21 06:26:47;;;;;;;4.97;0.80;;;;;;;20.31;47.37;100381.05;1707595;81;21072;-58
2022/07/21 06:29:13;;;;;;;3.20;1.00;;;;;;;20.35;47.10;100370.81;1723074;81;21117;-58
2022/07/21 06:31:40;;;;;;;5.60;1.35;;;;;;;20.40;47.20;100375.08;1710813;82;21211;-59
2022/07/21 06:34:07;;;;;;;4.33;1.17;;;;;;;20.44;46.27;100376.35;1712881;81;21061;-59
2022/07/21 06:36:34;;;;;;;3.75;0.90;;;;;;;20.46;46.58;100362.80;1713092;81;21480;-59
2022/07/21 06:39:02;;;;;;;3.10;1.10;;;;;;;20.49;47.28;100368.59;1716021;81;21497;-59
2022/07/21 06:41:28;;;;;;;4.65;1.07;;;;;;;20.55;47.61;100369.19;1714573;81;21551;-60
2022/07/21 06:43:55;;;;;;;4.10;1.25;;;;;;;20.61;46.11;100358.27;1710442;81;21247;-59
2022/07/21 06:46:21;;;;;;;5.10;1.00;;;;;;;20.63;45.88;100362.94;1708904;81;21053;-59
2022/07/21 06:48:48;;;;;;;4.87;1.02;;;;;;;20.68;46.09;100364.54;1715084;81;21057;-59
2022/07/21 06:51:14;;;;;;;4.00;1.25;;;;;;;20.73;45.93;100357.30;1711624;81;21016;-60
2022/07/21 06:53:42;;;;;;;7.72;1.20;;;;;;;20.81;46.73;100358.48;1712072;81;21088;-60
2022/07/21 06:56:09;;;;;;;2.92;0.80;;;;;;;20.89;45.46;100350.85;1672843;84;21224;-58
2022/07/21 06:58:35;;;;;;;7.10;1.27;;;;;;;20.97;45.41;100355.55;1674732;84;21144;-58
2022/07/21 07:01:02;;;;;;;4.67;0.90;;;;;;;21.04;45.53;100350.78;1671817;84;21073;-58
2022/07/21 07:03:29;;;;;;;3.27;0.95;;;;;;;21.07;44.52;100350.41;1712182;82;21101;-60
2022/07/21 07:05:55;;;;;;;3.40;0.93;;;;;;;21.09;43.98;100346.50;1713169;81;21109;-58
2022/07/21 07:08:22;;;;;;;2.37;0.85;;;;;;;21.11;44.00;100362.36;1717701;81;21179;-58
2022/07/21 07:10:49;;;;;;;2.52;0.78;;;;;;;21.12;44.56;100345.30;1722323;81;21066;-58
2022/07/21 07:13:17;;;;;;;4.40;1.10;;;;;;;21.17;44.47;100344.21;1721094;81;21129;-59
2022/07/21 07:15:45;;;;;;;5.37;1.00;;;;;;;21.22;44.91;100349.81;1717039;81;21468;-59
2022/07/21 07:18:13;;;;;;;4.42;0.72;;;;;;;21.28;45.59;100347.70;1716872;81;21025;-58
2022/07/21 07:20:39;;;;;;;1.92;0.82;;;;;;;21.37;45.15;100343.52;1719951;81;21111;-58
2022/07/21 07:23:06;;;;;;;2.42;0.95;;;;;;;21.45;45.11;100338.87;1672835;84;21486;-57
2022/07/21 07:25:33;;;;;;;3.58;0.82;;;;;;;21.52;45.58;100333.59;1706432;81;21008;-58
2022/07/21 07:28:00;;;;;;;2.02;0.82;;;;;;;21.58;44.34;100338.14;1674891;84;21035;-59
2022/07/21 07:30:27;;;;;;;5.00;1.17;;;;;;;21.64;43.33;100337.38;1721986;81;21106;-58
2022/07/21 07:32:54;;;;;;;2.60;0.72;;;;;;;21.68;43.06;100332.45;1712867;82;21144;-59
2022/07/21 07:35:21;;;;;;;2.27;0.80;;;;;;;21.68;42.87;100323.89;1712290;82;21347;-58
2022/07/21 07:37:48;;;;;;;4.40;1.00;;;;;;;21.69;42.14;100328.23;1703981;82;21067;-57
2022/07/21 07:40:18;;;;;;;3.87;0.70;;;;;;;21.72;41.90;100328.36;1696225;82;21048;-58
2022/07/21 07:42:44;;;;;;;5.78;0.98;;;;;;;21.74;42.03;100316.09;1698689;83;21084;-59
2022/07/21 07:45:11;;;;;;;2.22;0.68;;;;;;;21.79;42.43;100327.06;1726208;81;21128;-59
2022/07/21 07:47:39;;;;;;;3.12;0.72;;;;;;;21.82;41.75;100304.72;1710031;82;21531;-59
2022/07/21 07:50:11;;;;;;;2.12;0.90;;;;;;;21.87;41.74;100318.84;1672278;84;21018;-58
2022/07/21 07:52:40;;;;;;;2.87;0.72;;;;;;;21.92;42.39;100327.63;1715544;81;21071;-58
2022/07/21 07:55:10;;;;;;;3.85;0.80;;;;;;;21.97;42.64;100324.68;1669330;84;21117;-59
2022/07/21 07:57:39;;;;;;;5.05;0.70;;;;;;;22.07;43.00;100313.08;1704883;82;21682;-59
2022/07/21 08:00:09;;;;;;;3.67;0.98;;;;;;;22.15;42.35;100313.92;1674702;84;21698;-61
2022/07/21 08:02:39;;;;;;;2.98;0.90;;;;;;;22.25;42.46;100316.52;1716591;82;21086;-61
2022/07/21 08:05:08;;;;;;;4.53;0.78;;;;;;;22.33;41.57;100310.20;1681596;84;21154;-61
2022/07/21 08:07:38;;;;;;;3.58;0.80;;;;;;;22.37;41.37;100306.59;1700895;82;21096;-59
2022/07/21 08:10:12;;;;;;;2.30;0.60;;;;;;;22.36;40.30;100297.73;1705789;81;21678;-57
2022/07/21 08:12:39;;;;;;;3.25;0.90;;;;;;;22.38;40.32;100300.22;1721052;81;21106;-58
2022/07/21 08:15:07;;;;;;;3.67;1.07;;;;;;;22.39;40.11;100302.70;1726423;81;21125;-58
2022/07/21 08:17:34;;;;;;;3.65;0.98;;;;;;;22.39;39.80;100297.83;1713145;81;21080;-59
2022/07/21 08:20:00;;;;;;;3.22;0.70;;;;;;;22.37;39.85;100302.58;1673211;84;21608;-58
2022/07/21 08:22:28;;;;;;;3.65;0.80;;;;;;;22.37;39.80;100296.69;1685697;83;21847;-58
2022/07/21 08:24:54;;;;;;;2.70;0.78;;;;;;;22.37;40.15;100281.95;1701624;81;21576;-58
2022/07/21 08:27:21;;;;;;;5.92;0.62;;;;;;;22.42;40.59;100284.03;1692216;83;21528;-56
2022/07/21 08:29:47;;;;;;;2.95;0.60;;;;;;;22.50;40.43;100283.02;1718789;82;20998;-59
2022/07/21 08:32:14;;;;;;;5.03;1.27;;;;;;;22.58;40.30;100268.90;1715648;82;21638;-60
2022/07/21 08:34:40;;;;;;;2.83;0.60;;;;;;;22.71;39.51;100293.58;1712086;82;21410;-58
2022/07/21 08:37:07;;;;;;;2.77;0.80;;;;;;;22.78;39.46;100275.63;1705939;82;21139;-59
2022/07/21 08:39:33;;;;;;;1.20;0.60;;;;;;;22.85;38.85;100278.80;1702937;82;21160;-61
2022/07/21 08:42:01;;;;;;;3.75;0.78;;;;;;;22.87;39.04;100278.10;1711738;81;21081;-58
2022/07/21 08:44:27;;;;;;;5.60;0.90;;;;;;;22.89;39.63;100272.01;1714177;81;21069;-57
2022/07/21 08:46:54;;;;;;;4.28;0.82;;;;;;;22.89;39.86;100269.33;1717624;81;21247;-58
2022/07/21 08:49:25;;;;;;;4.65;0.98;;;;;;;22.93;40.59;100274.58;1711376;82;21094;-59
2022/07/21 08:51:51;;;;;;;3.80;0.72;;;;;;;22.99;39.66;100249.08;1701572;82;21061;-58
2022/07/21 08:54:20;;;;;;;2.62;0.70;;;;;;;23.09;39.99;100265.33;1715017;81;21533;-58
2022/07/21 08:56:47;;;;;;;1.87;0.70;;;;;;;23.16;39.59;100260.23;1670577;84;21046;-58
2022/07/21 08:59:13;;;;;;;2.22;0.80;;;;;;;23.23;39.55;100258.07;1675441;84;21154;-58
2022/07/21 09:01:40;;;;;;;4.22;0.98;;;;;;;23.26;39.25;100256.31;1696463;82;21070;-58
2022/07/21 09:04:27;;;;;;;4.75;1.10;;;;;;;23.32;39.00;100262.20;1694615;82;21125;-59
2022/07/21 09:07:03;;;;;;;4.67;0.78;;;;;;;23.37;38.98;100254.34;1695834;82;21118;-58
2022/07/21 09:09:34;;;;;;;2.92;0.75;;;;;;;23.45;39.53;100245.22;1694524;82;21144;-58
2022/07/21 09:12:02;;;;;;;3.85;0.78;;;;;;;23.51;38.84;100232.30;1700761;81;21147;-59
2022/07/21 09:14:32;;;;;;;3.02;1.02;;;;;;;23.56;39.33;100240.01;1712895;82;21008;-60
2022/07/21 09:17:03;;;;;;;2.87;0.88;;;;;;;23.63;39.32;100243.20;1711930;81;21070;-59
2022/07/21 09:19:37;;;;;;;3.20;0.98;;;;;;;23.74;38.35;100237.17;1698322;82;21097;-60
2022/07/21 09:22:08;;;;;;;3.80;1.00;;;;;;;23.78;38.48;100233.02;1703111;82;21094;-59
2022/07/21 09:24:39;;;;;;;4.22;0.82;;;;;;;23.84;38.10;100242.09;1698956;82;21211;-59
2022/07/21 09:27:16;;;;;;;2.42;0.80;;;;;;;23.85;37.71;100226.30;1703791;82;21446;-59
2022/07/21 09:29:51;;;;;;;4.90;0.95;;;;;;;23.86;38.07;100222.05;1716167;81;21622;-60
2022/07/21 09:32:29;;;;;;;2.95;0.70;;;;;;;23.88;38.08;100218.62;1703945;81;21113;-59
2022/07/21 09:35:09;;;;;;;1.95;0.80;;;;;;;23.95;39.29;100213.75;1723076;82;21014;-62
2022/07/21 09:37:36;;;;;;;4.53;1.40;;;;;;;23.99;38.56;100204.20;1694581;82;21587;-59
2022/07/21 09:40:10;;;;;;;3.47;1.00;;;;;;;23.91;38.40;100195.36;1699331;82;21050;-59
2022/07/21 09:42:43;;;;;;;4.17;1.10;;;;;;;23.88;39.12;100211.91;1705072;82;20984;-59
2022/07/21 09:45:16;;;;;;;3.25;0.95;;;;;;;23.92;39.05;100208.27;1692194;82;21081;-59
2022/07/21 09:47:43;;;;;;;4.03;1.05;;;;;;;23.99;38.25;100209.58;1705495;82;21101;-59
2022/07/21 09:50:14;;;;;;;4.17;0.90;;;;;;;24.04;38.84;100203.88;1691553;82;21406;-59
2022/07/21 09:52:45;;;;;;;3.50;1.05;;;;;;;24.08;39.50;100190.30;1713492;81;21105;-59
2022/07/21 09:55:15;;;;;;;3.90;1.27;;;;;;;24.14;39.39;100200.72;1709010;81;21075;-59
2022/07/21 09:57:42;;;;;;;3.67;1.00;;;;;;;24.16;38.43;100189.23;1712352;81;21041;-59
2022/07/21 10:00:14;;;;;;;4.22;1.15;;;;;;;24.22;38.96;100189.68;1704345;82;21540;-59
2022/07/21 10:02:43;;;;;;;3.17;1.02;;;;;;;24.31;38.99;100179.52;1703682;82;21164;-60
2022/07/21 10:05:14;;;;;;;4.87;1.02;;;;;;;24.40;38.79;100185.44;1704869;82;22276;-59
2022/07/21 10:07:43;;;;;;;6.00;1.32;;;;;;;24.43;38.95;100180.97;1709463;82;21588;-60
2022/07/21 10:10:10;;;;;;;5.53;1.40;;;;;;;24.43;38.74;100183.66;1717991;81;21026;-59
2022/07/21 10:12:39;;;;;;;3.70;1.20;;;;;;;24.50;39.84;100179.04;1717154;82;21115;-59
2022/07/21 10:15:07;;;;;;;4.92;1.10;;;;;;;24.61;39.42;100174.33;1711472;82;22007;-59
2022/07/21 10:17:35;;;;;;;4.67;1.37;;;;;;;24.71;39.11;100182.41;1710204;82;21060;-59
2022/07/21 10:20:23;;;;;;;4.17;1.37;;;;;;;24.70;37.60;100179.44;1699175;82;21056;-59
2022/07/21 10:23:04;;;;;;;4.00;1.07;;;;;;;24.64;38.04;100182.47;1700648;82;21051;-59
2022/07/21 10:25:32;;;;;;;3.62;1.37;;;;;;;24.56;37.99;100170.63;1711094;82;21057;-59
2022/07/21 10:28:24;;;;;;;4.08;1.42;;;;;;;24.52;38.81;100189.58;1682950;84;21150;-60
2022/07/21 10:30:55;;;;;;;3.12;1.22;;;;;;;24.58;38.85;100180.14;1717284;81;21525;-59
2022/07/21 10:33:48;;;;;;;3.45;1.17;;;;;;;24.70;37.48;100175.40;1708463;81;21149;-60
2022/07/21 10:36:37;;;;;;;3.50;1.45;;;;;;;24.82;38.17;100178.47;1708565;81;21555;-60
2022/07/21 10:39:16;;;;;;;4.33;1.62;;;;;;;24.99;37.55;100174.67;1706901;82;21065;-60
2022/07/21 10:41:48;;;;;;;4.33;1.50;;;;;;;25.07;37.60;100164.68;1716898;81;21197;-61
2022/07/21 10:44:35;;;;;;;6.12;1.40;;;;;;;25.13;37.56;100182.61;1712012;82;21114;-59
2022/07/21 10:47:13;;;;;;;3.62;1.37;;;;;;;25.19;37.57;100181.19;1707509;82;21463;-61
2022/07/21 10:49:45;;;;;;;8.63;1.67;;;;;;;25.18;36.60;100167.95;1663078;84;21208;-59
2022/07/21 10:52:45;;;;;;;3.30;1.30;;;;;;;25.17;37.48;100179.78;1682401;84;21074;-59
2022/07/21 10:55:24;;;;;;;4.45;1.27;;;;;;;25.21;36.92;100167.51;1665527;84;21575;-60
2022/07/21 10:57:47;;;;;;;4.00;1.40;;;;;;;25.34;36.69;100171.95;1713329;81;21597;-59
2022/07/21 11:00:32;;;;;;;3.55;1.42;;;;;;;25.43;36.42;100162.50;1714930;81;21535;-59
2022/07/21 11:03:01;;;;;;;5.50;2.00;;;;;;;25.52;36.99;100157.12;1701790;82;21127;-59
2022/07/21 11:05:31;;;;;;;6.58;1.80;;;;;;;25.56;36.56;100169.08;1713521;81;22230;-59
2022/07/21 11:08:18;;;;;;;4.50;1.82;;;;;;;25.58;36.90;100162.11;1702344;81;21596;-59
2022/07/21 11:10:52;;;;;;;4.33;1.60;;;;;;;25.62;36.50;100161.12;1713957;81;21074;-58
2022/07/21 11:13:25;;;;;;;4.08;1.80;;;;;;;25.58;37.45;100160.77;1704062;82;21664;-60
2022/07/21 11:15:58;;;;;;;4.78;2.02;;;;;;;25.62;37.22;100166.52;1677078;84;21089;-59
2022/07/21 11:18:29;;;;;;;5.78;1.98;;;;;;;25.62;36.66;100163.83;1702817;82;21636;-61
2022/07/21 11:21:12;;;;;;;5.28;1.82;;;;;;;25.58;36.81;100160.23;1672122;84;21149;-60
2022/07/21 11:23:49;;;;;;;4.20;1.80;;;;;;;25.64;37.57;100154.98;1670041;84;21751;-59
2022/07/21 11:26:19;;;;;;;4.45;1.80;;;;;;;25.73;37.55;100146.36;1715885;81;21069;-60
2022/07/21 11:28:46;;;;;;;4.60;2.00;;;;;;;25.77;36.67;100148.06;1706800;81;21762;-60
2022/07/21 11:31:21;;;;;;;6.00;2.15;;;;;;;25.84;36.95;100150.16;1711765;81;21595;-61
2022/07/21 11:33:47;;;;;;;5.62;2.30;;;;;;;25.92;37.42;100141.75;1709810;81;21249;-60
2022/07/21 11:36:30;;;;;;;4.78;2.22;;;;;;;25.93;36.18;100141.22;1671944;84;21143;-59
2022/07/21 11:39:04;;;;;;;4.25;2.20;;;;;;;25.87;37.42;100149.70;1699919;82;21103;-59
2022/07/21 11:41:34;;;;;;;5.20;2.22;;;;;;;25.77;37.37;100147.56;1669562;84;21130;-59
2022/07/21 11:44:01;;;;;;;4.50;2.02;;;;;;;25.74;37.76;100146.66;1726033;81;21686;-59
2022/07/21 11:46:27;;;;;;;4.62;2.40;;;;;;;25.84;37.27;100144.77;1713700;81;21841;-59
2022/07/21 11:49:05;;;;;;;4.15;2.00;;;;;;;25.99;37.34;100142.19;1724869;81;21557;-59
2022/07/21 11:51:32;;;;;;;7.30;2.67;;;;;;;26.17;36.68;100139.41;1710624;81;21080;-58
2022/07/21 11:53:58;;;;;;;5.50;3.05;;;;;;;26.38;36.73;100138.05;1701097;82;21028;-59
2022/07/21 11:56:25;;;;;;;4.25;2.10;;;;;;;26.50;36.43;100130.77;1709156;81;21065;-59
2022/07/21 11:59:10;;;;;;;5.40;2.65;;;;;;;26.56;36.45;100138.98;1704191;82;21266;-59